• Join FlightAware (Why Join?)
  • Login
  • US Flag 
09:03AM EDT


 

Airport Tracker/Info


-or-


 

Live Flight TrackerFlight Track Log ✈ N7711Y ✈ 09-Jun-2013 ✈ KCHO - KIAG

Flight Track Log - Related Links

Times and Time Zones

All times are in EDT time to prevent confusion due to time zone crossing. See the N7711Y flight status page for this flight to view local times or setup timezone preferences in your user account.

Time Position Orientation Groundspeed Altitude Reporting Facility
EDT Latitude Longitude Course Direction KTS MPH feet Rate Location/Type
02:06PM 38.1667 -78.4333 North 115 132 1,800  Level Potomac TRACON
02:07PM 38.2000 -78.4167 21° North 131 151 2,600 900 Climbing Potomac TRACON
02:08PM 38.2333 -78.4333 339° North 143 165 3,700 1,020 Climbing Potomac TRACON
02:09PM 38.2708 -78.4453 346° North 146 168 4,300 1,080 Climbing Washington Center
02:10PM 38.3036 -78.4653 334° Northwest 146 168 5,500 1,020 Climbing Washington Center
02:11PM 38.3406 -78.4850 337° Northwest 157 181 6,500 960 Climbing Washington Center
02:12PM 38.4109 -78.4500 North  Level FlightAware Approximate
02:12PM 38.3800 -78.5025 341° North 151 174 7,500  Level Washington Center
02:13PM 38.4192 -78.5200 341° North 151 174 8,700 780 Climbing Washington Center
02:14PM 38.4625 -78.5322 348° North 151 174 9,100 180 Climbing Washington Center
02:15PM 38.5164 -78.5450 349° North 166 191 9,100  Level Washington Center
02:16PM 38.5658 -78.5683 340° North 180 207 9,100  Level Washington Center
02:17PM 38.6133 -78.5889 341° North 185 213 9,100  Level Washington Center
02:18PM 38.6631 -78.6067 344° North 185 213 9,100  Level Washington Center
02:19PM 38.7103 -78.6272 341° North 185 213 9,100  Level Washington Center
02:20PM 38.7600 -78.6453 344° North 185 213 9,100  Level Washington Center
02:21PM 38.8094 -78.6686 340° North 185 213 9,100  Level Washington Center
02:22PM 38.8597 -78.6628 North 185 213 9,100  Level Washington Center
02:23PM 38.9122 -78.6464 14° North 178 205 9,100  Level Washington Center
02:24PM 38.9606 -78.6322 13° North 183 211 9,100  Level Washington Center
02:25PM 39.0108 -78.6158 14° North 183 211 9,100  Level Washington Center
02:26PM 39.0614 -78.5992 14° North 183 211 9,100  Level Washington Center
02:27PM 39.1097 -78.5850 13° North 183 211 9,100  Level Washington Center
02:28PM 39.1581 -78.5708 13° North 183 211 9,100  Level Washington Center
02:29PM 39.2064 -78.5542 15° North 178 205 9,100  Level Washington Center
02:30PM 39.2547 -78.5400 13° North 178 205 9,100  Level Washington Center
02:31PM 39.3031 -78.5231 15° North 178 205 9,100  Level Washington Center
02:32PM 39.3514 -78.5064 15° North 178 205 9,100  Level Washington Center
02:33PM 39.4017 -78.4922 12° North 178 205 9,100  Level Washington Center
02:34PM 39.4500 -78.4753 15° North 183 211 9,100  Level Washington Center
02:35PM 39.5025 -78.4586 14° North 183 211 9,100  Level Washington Center
02:36PM 39.5350 -78.4114 48° Northeast 171 197 9,100  Level Washington Center
02:37PM 39.5611 -78.3533 60° Northeast 171 197 9,100  Level Washington Center
02:38PM 39.5897 -78.2953 57° Northeast 177 204 9,100  Level Washington Center
02:39PM 39.6158 -78.2369 60° Northeast 182 209 9,100  Level Washington Center
02:40PM 39.6442 -78.1786 58° Northeast 182 209 9,100  Level Washington Center
02:41PM 39.6767 -78.1083 59° Northeast 180 207 9,100  Level New York Center
02:42PM 39.7072 -78.0522 55° Northeast 180 207 9,100  Level New York Center
02:43PM 39.7619 -78.0553 358° North 149 171 9,100  Level Cleveland Center
02:44PM 39.8081 -78.0672 349° North 162 186 9,100  Level Cleveland Center
02:45PM 39.8561 -78.0789 349° North 168 193 9,100  Level Cleveland Center
02:46PM 39.9022 -78.0906 349° North 168 193 9,100  Level Cleveland Center
02:47PM 39.9506 -78.1025 349° North 168 193 9,100  Level Cleveland Center
02:48PM 39.9967 -78.1142 349° North 168 193 9,100  Level Cleveland Center
02:49PM 40.0428 -78.1289 346° North 168 193 9,100  Level Cleveland Center
02:50PM 40.0911 -78.1406 350° North 168 193 9,100  Level Cleveland Center
02:51PM 40.1331 -78.1528 347° North 168 193 9,100  Level Cleveland Center
02:52PM 40.1811 -78.1644 349° North 168 193 9,100  Level Cleveland Center
02:53PM 40.2272 -78.1764 349° North 168 193 9,100  Level Cleveland Center
02:54PM 40.2756 -78.1883 349° North 168 193 9,100  Level Cleveland Center
02:57PM 40.3875 -78.2164 349° North 164 189 9,100  Level New York Center
02:58PM 40.4344 -78.2294 348° North 164 189 9,100  Level New York Center
02:59PM 40.4892 -78.2433 349° North 176 203 9,100  Level Cleveland Center
03:00PM 40.5353 -78.2556 349° North 176 203 9,100  Level Cleveland Center
03:01PM 40.5836 -78.2675 349° North 171 197 9,100  Level Cleveland Center
03:02PM 40.6297 -78.2794 349° North 171 197 9,100  Level Cleveland Center
03:03PM 40.6778 -78.2914 349° North 171 197 9,100  Level Cleveland Center
03:04PM 40.7242 -78.3064 346° North 166 191 9,100  Level Cleveland Center
03:05PM 40.7703 -78.3183 349° North 166 191 9,100  Level Cleveland Center
03:06PM 40.8183 -78.3306 349° North 166 191 9,100  Level Cleveland Center
03:07PM 40.8686 -78.3425 350° North 166 191 9,100  Level Cleveland Center
03:08PM 40.9169 -78.3575 347° North 173 199 9,100  Level Cleveland Center
03:09PM 40.9631 -78.3697 349° North 173 199 9,100  Level Cleveland Center
03:10PM 41.0092 -78.3792 351° North 173 199 9,100  Level Cleveland Center
03:11PM 41.0572 -78.3939 347° North 173 199 9,100  Level Cleveland Center
03:12PM 41.1075 -78.4061 350° North 168 193 9,100  Level Cleveland Center
03:13PM 41.1536 -78.4183 349° North 168 193 9,100  Level Cleveland Center
03:14PM 41.2019 -78.4333 347° North 168 193 9,100  Level Cleveland Center
03:15PM 41.2481 -78.4428 351° North 168 193 9,100  Level Cleveland Center
03:16PM 41.2961 -78.4550 349° North 168 193 9,100  Level Cleveland Center
03:17PM 41.3444 -78.4700 347° North 168 193 9,100  Level Cleveland Center
03:18PM 41.3903 -78.4797 351° North 168 193 9,100  Level Cleveland Center
03:19PM 41.4364 -78.4919 349° North 168 193 9,100  Level Cleveland Center
03:20PM 41.4825 -78.5044 349° North 168 193 9,100  Level Cleveland Center
03:21PM 41.5308 -78.5167 349° North 163 188 9,100  Level Cleveland Center
03:22PM 41.5769 -78.5319 346° North 168 193 9,100  Level Cleveland Center
03:23PM 41.6228 -78.5414 351° North 168 193 9,100  Level Cleveland Center
03:24PM 41.6689 -78.5539 349° North 168 193 9,100  Level Cleveland Center
03:25PM 41.7150 -78.5664 349° North 168 193 9,100  Level Cleveland Center
03:26PM 41.7611 -78.5789 349° North 168 193 9,100  Level Cleveland Center
03:27PM 41.8072 -78.5914 349° North 168 193 9,100  Level Cleveland Center
03:28PM 41.8553 -78.6011 351° North 163 188 9,100  Level Cleveland Center
03:29PM 41.8972 -78.6136 347° North 163 188 9,100  Level Cleveland Center
03:30PM 41.9475 -78.6261 350° North 163 188 9,100  Level Cleveland Center
03:31PM 41.9917 -78.6417 345° North 163 188 9,100  Level Cleveland Center
03:32PM 42.0333 -78.6542 347° North 163 188 9,100  Level Cleveland Center
03:33PM 42.0794 -78.6639 351° North 163 188 9,100  Level Cleveland Center
03:34PM 42.1214 -78.6739 350° North 163 188 9,100  Level Cleveland Center
03:35PM 42.1653 -78.6839 350° North 163 188 9,100  Level Cleveland Center
03:36PM 42.2133 -78.6992 347° North 163 188 9,100  Level Cleveland Center
03:37PM 42.2575 -78.7119 348° North 163 188 9,100  Level Cleveland Center
03:38PM 42.3036 -78.7247 348° North 163 188 9,100  Level Cleveland Center
03:39PM 42.3475 -78.7347 350° North 163 188 9,100  Level Cleveland Center
03:40PM 42.3936 -78.7472 349° North 163 188 9,100  Level Cleveland Center
03:41PM 42.4353 -78.7603 347° North 163 188 9,100  Level Cleveland Center
03:42PM 42.4794 -78.7758 345° North 163 188 9,100 -300 Level Cleveland Center
03:43PM 42.5214 -78.7858 350° North 163 188 8,500 -660 Descending Cleveland Center
03:44PM 42.5653 -78.7986 348° North 163 188 7,800 -780 Descending Cleveland Center
03:46PM 42.6667 -78.8167 353° North 160 184 6,100 -600 Descending Buffalo TRACON
03:47PM 42.7167 -78.8333 346° North 159 183 6,000 -60 Descending Buffalo TRACON
03:48PM 42.7500 -78.8500 340° North 147 169 6,000  Level Buffalo TRACON
03:49PM 42.7833 -78.8500 360° North 141 162 6,000  Level Buffalo TRACON
03:50PM 42.8333 -78.8667 346° North 138 159 6,000 -60 Level Buffalo TRACON
03:51PM 42.8667 -78.8833 340° North 137 158 5,900 -480 Descending Buffalo TRACON
03:52PM 42.9000 -78.8833 360° North 150 173 5,200 -840 Descending Buffalo TRACON
03:53PM 42.9333 -78.9000 340° North 158 182 4,400 -960 Descending Buffalo TRACON
03:54PM 42.9833 -78.9167 346° North 162 186 3,300 -840 Descending Buffalo TRACON
03:55PM 43.0333 -78.9333 346° North 163 188 2,700 -660 Descending Buffalo TRACON
03:56PM 43.0667 -78.9167 20° North 149 171 2,100 -540 Descending Buffalo TRACON
03:57PM 43.1000 -78.9000 20° North 123 142 1,700 -300 Descending Buffalo TRACON
03:58PM 43.1333 -78.9000 360° North 114 131 1,500 -240 Descending Buffalo TRACON
04:00PM 43.1000 -78.9333 216° Southwest  Level FlightAware Approximate